sensor_id;sensor_type;location;lat;lon;timestamp;P1;durP1;ratioP1;P2;durP2;ratioP2
72335;SDS011;65062;48.446;8.834;2022-11-15T00:01:57;8.93;;;4.60;;
72335;SDS011;65062;48.446;8.834;2022-11-15T00:04:57;6.47;;;4.28;;
72335;SDS011;65062;48.446;8.834;2022-11-15T00:07:58;8.15;;;4.30;;
72335;SDS011;65062;48.446;8.834;2022-11-15T00:10:59;6.85;;;4.78;;
72335;SDS011;65062;48.446;8.834;2022-11-15T00:14:00;5.95;;;3.75;;
72335;SDS011;65062;48.446;8.834;2022-11-15T00:17:04;6.00;;;3.97;;
72335;SDS011;65062;48.446;8.834;2022-11-15T00:20:04;7.82;;;4.47;;
72335;SDS011;65062;48.446;8.834;2022-11-15T00:23:05;6.70;;;3.83;;
72335;SDS011;65062;48.446;8.834;2022-11-15T00:26:07;8.02;;;4.13;;
72335;SDS011;65062;48.446;8.834;2022-11-15T00:29:10;7.43;;;4.60;;
72335;SDS011;65062;48.446;8.834;2022-11-15T00:32:11;8.57;;;4.63;;
72335;SDS011;65062;48.446;8.834;2022-11-15T00:35:12;8.23;;;4.05;;
72335;SDS011;65062;48.446;8.834;2022-11-15T00:38:12;9.23;;;5.45;;
72335;SDS011;65062;48.446;8.834;2022-11-15T00:41:12;8.23;;;4.40;;
72335;SDS011;65062;48.446;8.834;2022-11-15T00:44:13;6.70;;;4.70;;
72335;SDS011;65062;48.446;8.834;2022-11-15T00:47:13;6.15;;;4.00;;
72335;SDS011;65062;48.446;8.834;2022-11-15T00:50:13;7.43;;;4.00;;
72335;SDS011;65062;48.446;8.834;2022-11-15T00:53:14;6.80;;;4.13;;
72335;SDS011;65062;48.446;8.834;2022-11-15T00:56:15;7.78;;;4.30;;
72335;SDS011;65062;48.446;8.834;2022-11-15T00:59:15;11.18;;;5.82;;
72335;SDS011;65062;48.446;8.834;2022-11-15T01:02:16;12.18;;;5.43;;
72335;SDS011;65062;48.446;8.834;2022-11-15T01:05:16;11.43;;;5.35;;
72335;SDS011;65062;48.446;8.834;2022-11-15T01:08:17;11.10;;;4.80;;
72335;SDS011;65062;48.446;8.834;2022-11-15T01:11:17;8.35;;;4.57;;
72335;SDS011;65062;48.446;8.834;2022-11-15T01:14:17;10.40;;;4.50;;
72335;SDS011;65062;48.446;8.834;2022-11-15T01:17:18;7.25;;;4.45;;
72335;SDS011;65062;48.446;8.834;2022-11-15T01:20:18;8.38;;;4.95;;
72335;SDS011;65062;48.446;8.834;2022-11-15T01:23:18;9.90;;;5.00;;
72335;SDS011;65062;48.446;8.834;2022-11-15T01:26:19;11.35;;;5.47;;
72335;SDS011;65062;48.446;8.834;2022-11-15T01:29:19;12.43;;;5.00;;
72335;SDS011;65062;48.446;8.834;2022-11-15T01:32:20;11.02;;;5.20;;
72335;SDS011;65062;48.446;8.834;2022-11-15T01:35:20;7.97;;;4.22;;
72335;SDS011;65062;48.446;8.834;2022-11-15T01:38:21;7.43;;;4.43;;
72335;SDS011;65062;48.446;8.834;2022-11-15T01:41:23;14.25;;;4.97;;
72335;SDS011;65062;48.446;8.834;2022-11-15T01:47:33;8.63;;;4.63;;
72335;SDS011;65062;48.446;8.834;2022-11-15T01:50:38;13.77;;;4.80;;
72335;SDS011;65062;48.446;8.834;2022-11-15T01:53:39;7.63;;;4.10;;
72335;SDS011;65062;48.446;8.834;2022-11-15T01:56:45;6.80;;;3.80;;
72335;SDS011;65062;48.446;8.834;2022-11-15T01:59:55;7.18;;;3.95;;
72335;SDS011;65062;48.446;8.834;2022-11-15T02:02:57;9.20;;;4.97;;
72335;SDS011;65062;48.446;8.834;2022-11-15T02:05:57;16.05;;;4.90;;
72335;SDS011;65062;48.446;8.834;2022-11-15T02:08:59;7.68;;;4.30;;
72335;SDS011;65062;48.446;8.834;2022-11-15T02:12:00;11.65;;;4.47;;
72335;SDS011;65062;48.446;8.834;2022-11-15T02:15:00;8.85;;;4.50;;
72335;SDS011;65062;48.446;8.834;2022-11-15T02:18:11;8.48;;;5.15;;
72335;SDS011;65062;48.446;8.834;2022-11-15T02:30:47;8.15;;;4.25;;
72335;SDS011;65062;48.446;8.834;2022-11-15T02:34:08;6.57;;;4.28;;
72335;SDS011;65062;48.446;8.834;2022-11-15T02:37:16;7.68;;;4.50;;
72335;SDS011;65062;48.446;8.834;2022-11-15T02:46:58;7.20;;;4.38;;
72335;SDS011;65062;48.446;8.834;2022-11-15T02:50:15;8.82;;;4.80;;
72335;SDS011;65062;48.446;8.834;2022-11-15T02:53:20;6.53;;;4.30;;
72335;SDS011;65062;48.446;8.834;2022-11-15T02:56:24;7.82;;;4.75;;
72335;SDS011;65062;48.446;8.834;2022-11-15T03:06:03;6.97;;;4.85;;
72335;SDS011;65062;48.446;8.834;2022-11-15T03:09:28;7.70;;;4.47;;
72335;SDS011;65062;48.446;8.834;2022-11-15T03:15:37;7.40;;;4.50;;
72335;SDS011;65062;48.446;8.834;2022-11-15T03:18:45;6.85;;;4.40;;
72335;SDS011;65062;48.446;8.834;2022-11-15T03:21:49;7.32;;;4.88;;
72335;SDS011;65062;48.446;8.834;2022-11-15T03:24:53;7.68;;;4.70;;
72335;SDS011;65062;48.446;8.834;2022-11-15T03:27:56;6.53;;;4.25;;
72335;SDS011;65062;48.446;8.834;2022-11-15T03:31:01;6.13;;;4.13;;
72335;SDS011;65062;48.446;8.834;2022-11-15T03:34:31;6.55;;;4.43;;
72335;SDS011;65062;48.446;8.834;2022-11-15T03:37:41;6.63;;;4.47;;
72335;SDS011;65062;48.446;8.834;2022-11-15T03:40:53;7.15;;;4.20;;
72335;SDS011;65062;48.446;8.834;2022-11-15T03:50:23;6.20;;;4.05;;
72335;SDS011;65062;48.446;8.834;2022-11-15T03:53:25;7.78;;;5.03;;
72335;SDS011;65062;48.446;8.834;2022-11-15T03:56:25;6.97;;;4.35;;
72335;SDS011;65062;48.446;8.834;2022-11-15T03:59:25;5.95;;;4.22;;
72335;SDS011;65062;48.446;8.834;2022-11-15T04:02:26;6.38;;;4.20;;
72335;SDS011;65062;48.446;8.834;2022-11-15T04:05:26;5.78;;;4.43;;
72335;SDS011;65062;48.446;8.834;2022-11-15T04:08:27;7.47;;;5.03;;
72335;SDS011;65062;48.446;8.834;2022-11-15T04:11:27;9.27;;;5.80;;
72335;SDS011;65062;48.446;8.834;2022-11-15T04:14:28;8.07;;;4.65;;
72335;SDS011;65062;48.446;8.834;2022-11-15T04:17:28;7.25;;;4.70;;
72335;SDS011;65062;48.446;8.834;2022-11-15T04:20:29;6.68;;;4.32;;
72335;SDS011;65062;48.446;8.834;2022-11-15T04:23:49;6.28;;;4.18;;
72335;SDS011;65062;48.446;8.834;2022-11-15T04:27:08;8.65;;;4.60;;
72335;SDS011;65062;48.446;8.834;2022-11-15T04:30:08;7.30;;;4.43;;
72335;SDS011;65062;48.446;8.834;2022-11-15T04:33:09;7.55;;;4.30;;
72335;SDS011;65062;48.446;8.834;2022-11-15T04:36:10;6.45;;;4.60;;
72335;SDS011;65062;48.446;8.834;2022-11-15T04:39:29;6.70;;;4.60;;
72335;SDS011;65062;48.446;8.834;2022-11-15T04:42:29;8.75;;;4.97;;
72335;SDS011;65062;48.446;8.834;2022-11-15T04:45:29;6.38;;;4.13;;
72335;SDS011;65062;48.446;8.834;2022-11-15T04:48:30;6.93;;;4.32;;
72335;SDS011;65062;48.446;8.834;2022-11-15T04:51:30;5.47;;;3.95;;
72335;SDS011;65062;48.446;8.834;2022-11-15T04:54:31;23.38;;;8.85;;
72335;SDS011;65062;48.446;8.834;2022-11-15T04:57:31;9.75;;;4.90;;
72335;SDS011;65062;48.446;8.834;2022-11-15T05:00:31;6.63;;;4.07;;
72335;SDS011;65062;48.446;8.834;2022-11-15T05:03:32;7.88;;;4.68;;
72335;SDS011;65062;48.446;8.834;2022-11-15T05:06:51;8.52;;;4.47;;
72335;SDS011;65062;48.446;8.834;2022-11-15T05:09:51;7.30;;;4.53;;
72335;SDS011;65062;48.446;8.834;2022-11-15T05:12:52;6.20;;;4.75;;
72335;SDS011;65062;48.446;8.834;2022-11-15T05:15:52;5.88;;;4.13;;
72335;SDS011;65062;48.446;8.834;2022-11-15T05:18:53;5.30;;;3.83;;
72335;SDS011;65062;48.446;8.834;2022-11-15T05:21:54;6.90;;;4.85;;
72335;SDS011;65062;48.446;8.834;2022-11-15T05:24:54;6.97;;;4.38;;
72335;SDS011;65062;48.446;8.834;2022-11-15T05:27:55;5.65;;;4.22;;
72335;SDS011;65062;48.446;8.834;2022-11-15T05:31:05;6.40;;;4.18;;
72335;SDS011;65062;48.446;8.834;2022-11-15T05:34:10;4.70;;;3.95;;
72335;SDS011;65062;48.446;8.834;2022-11-15T05:37:10;6.85;;;4.20;;
72335;SDS011;65062;48.446;8.834;2022-11-15T05:40:11;5.68;;;3.92;;
72335;SDS011;65062;48.446;8.834;2022-11-15T05:43:11;5.13;;;3.88;;
72335;SDS011;65062;48.446;8.834;2022-11-15T05:46:12;6.13;;;4.00;;
72335;SDS011;65062;48.446;8.834;2022-11-15T05:49:14;5.68;;;4.10;;
72335;SDS011;65062;48.446;8.834;2022-11-15T05:52:20;6.55;;;4.18;;
72335;SDS011;65062;48.446;8.834;2022-11-15T05:55:24;8.75;;;4.25;;
72335;SDS011;65062;48.446;8.834;2022-11-15T05:58:25;6.45;;;4.28;;
72335;SDS011;65062;48.446;8.834;2022-11-15T06:01:25;5.20;;;3.95;;
72335;SDS011;65062;48.446;8.834;2022-11-15T06:04:27;6.63;;;4.40;;
72335;SDS011;65062;48.446;8.834;2022-11-15T06:07:28;6.32;;;4.20;;
72335;SDS011;65062;48.446;8.834;2022-11-15T06:10:29;6.50;;;4.32;;
72335;SDS011;65062;48.446;8.834;2022-11-15T06:13:29;6.45;;;4.55;;
72335;SDS011;65062;48.446;8.834;2022-11-15T06:16:30;6.60;;;4.68;;
72335;SDS011;65062;48.446;8.834;2022-11-15T06:19:30;6.28;;;4.32;;
72335;SDS011;65062;48.446;8.834;2022-11-15T06:22:32;5.95;;;4.63;;
72335;SDS011;65062;48.446;8.834;2022-11-15T06:25:33;8.20;;;4.75;;
72335;SDS011;65062;48.446;8.834;2022-11-15T06:28:33;7.55;;;5.32;;
72335;SDS011;65062;48.446;8.834;2022-11-15T06:31:34;9.38;;;5.90;;
72335;SDS011;65062;48.446;8.834;2022-11-15T06:34:34;9.77;;;5.63;;
72335;SDS011;65062;48.446;8.834;2022-11-15T06:37:35;10.10;;;4.90;;
72335;SDS011;65062;48.446;8.834;2022-11-15T06:40:36;8.25;;;5.05;;
72335;SDS011;65062;48.446;8.834;2022-11-15T06:43:38;8.82;;;5.43;;
72335;SDS011;65062;48.446;8.834;2022-11-15T06:46:39;7.45;;;5.55;;
72335;SDS011;65062;48.446;8.834;2022-11-15T06:49:39;8.73;;;5.23;;
72335;SDS011;65062;48.446;8.834;2022-11-15T06:52:39;8.65;;;5.65;;
72335;SDS011;65062;48.446;8.834;2022-11-15T06:55:40;8.73;;;5.38;;
72335;SDS011;65062;48.446;8.834;2022-11-15T06:58:40;10.02;;;6.43;;
72335;SDS011;65062;48.446;8.834;2022-11-15T07:01:40;10.93;;;6.95;;
72335;SDS011;65062;48.446;8.834;2022-11-15T07:04:41;11.20;;;6.63;;
72335;SDS011;65062;48.446;8.834;2022-11-15T07:07:41;9.73;;;6.00;;
72335;SDS011;65062;48.446;8.834;2022-11-15T07:10:42;14.77;;;8.18;;
72335;SDS011;65062;48.446;8.834;2022-11-15T07:13:42;10.85;;;6.55;;
72335;SDS011;65062;48.446;8.834;2022-11-15T07:16:42;17.20;;;8.85;;
72335;SDS011;65062;48.446;8.834;2022-11-15T07:19:43;10.77;;;6.85;;
72335;SDS011;65062;48.446;8.834;2022-11-15T07:22:43;9.93;;;6.05;;
72335;SDS011;65062;48.446;8.834;2022-11-15T07:25:46;7.82;;;5.10;;
72335;SDS011;65062;48.446;8.834;2022-11-15T07:28:47;10.13;;;5.55;;
72335;SDS011;65062;48.446;8.834;2022-11-15T07:31:47;9.25;;;5.80;;
72335;SDS011;65062;48.446;8.834;2022-11-15T07:34:49;9.07;;;5.95;;
72335;SDS011;65062;48.446;8.834;2022-11-15T07:37:57;7.57;;;5.50;;
72335;SDS011;65062;48.446;8.834;2022-11-15T07:40:59;9.15;;;5.70;;
72335;SDS011;65062;48.446;8.834;2022-11-15T07:44:02;9.38;;;5.97;;
72335;SDS011;65062;48.446;8.834;2022-11-15T07:47:03;9.45;;;6.07;;
72335;SDS011;65062;48.446;8.834;2022-11-15T07:50:03;17.67;;;9.43;;
72335;SDS011;65062;48.446;8.834;2022-11-15T07:53:04;8.68;;;5.60;;
72335;SDS011;65062;48.446;8.834;2022-11-15T07:56:07;9.23;;;6.25;;
72335;SDS011;65062;48.446;8.834;2022-11-15T07:59:08;9.82;;;5.88;;
72335;SDS011;65062;48.446;8.834;2022-11-15T08:02:08;7.13;;;4.93;;
72335;SDS011;65062;48.446;8.834;2022-11-15T08:05:09;6.70;;;4.60;;
72335;SDS011;65062;48.446;8.834;2022-11-15T08:08:10;7.72;;;4.60;;
72335;SDS011;65062;48.446;8.834;2022-11-15T08:11:11;12.73;;;8.13;;
72335;SDS011;65062;48.446;8.834;2022-11-15T08:14:11;11.10;;;6.90;;
72335;SDS011;65062;48.446;8.834;2022-11-15T08:17:12;10.63;;;7.00;;
72335;SDS011;65062;48.446;8.834;2022-11-15T08:20:12;8.10;;;5.15;;
72335;SDS011;65062;48.446;8.834;2022-11-15T08:23:12;5.50;;;3.83;;
72335;SDS011;65062;48.446;8.834;2022-11-15T08:26:13;5.50;;;3.97;;
72335;SDS011;65062;48.446;8.834;2022-11-15T08:29:14;5.85;;;4.00;;
72335;SDS011;65062;48.446;8.834;2022-11-15T08:32:14;6.15;;;4.15;;
72335;SDS011;65062;48.446;8.834;2022-11-15T08:35:15;5.47;;;3.85;;
72335;SDS011;65062;48.446;8.834;2022-11-15T08:38:15;5.68;;;3.85;;
72335;SDS011;65062;48.446;8.834;2022-11-15T08:41:18;4.43;;;3.35;;
72335;SDS011;65062;48.446;8.834;2022-11-15T08:44:24;4.85;;;3.55;;
72335;SDS011;65062;48.446;8.834;2022-11-15T08:47:25;4.38;;;3.55;;
72335;SDS011;65062;48.446;8.834;2022-11-15T08:50:26;5.10;;;3.42;;
72335;SDS011;65062;48.446;8.834;2022-11-15T08:53:26;36.58;;;33.15;;
72335;SDS011;65062;48.446;8.834;2022-11-15T08:56:27;5.70;;;4.43;;
72335;SDS011;65062;48.446;8.834;2022-11-15T08:59:27;4.50;;;3.40;;
72335;SDS011;65062;48.446;8.834;2022-11-15T09:02:27;5.07;;;3.47;;
72335;SDS011;65062;48.446;8.834;2022-11-15T09:05:28;5.03;;;3.38;;
72335;SDS011;65062;48.446;8.834;2022-11-15T09:08:31;14.35;;;8.43;;
72335;SDS011;65062;48.446;8.834;2022-11-15T09:11:32;10.35;;;5.22;;
72335;SDS011;65062;48.446;8.834;2022-11-15T09:14:32;7.03;;;3.67;;
72335;SDS011;65062;48.446;8.834;2022-11-15T09:17:33;5.10;;;3.30;;
72335;SDS011;65062;48.446;8.834;2022-11-15T09:20:33;4.30;;;3.35;;
72335;SDS011;65062;48.446;8.834;2022-11-15T09:23:34;5.72;;;3.22;;
72335;SDS011;65062;48.446;8.834;2022-11-15T09:26:34;5.63;;;3.08;;
72335;SDS011;65062;48.446;8.834;2022-11-15T09:29:34;4.45;;;3.08;;
72335;SDS011;65062;48.446;8.834;2022-11-15T09:32:35;5.35;;;3.00;;
72335;SDS011;65062;48.446;8.834;2022-11-15T09:35:35;7.50;;;3.00;;
72335;SDS011;65062;48.446;8.834;2022-11-15T09:38:36;5.30;;;2.92;;
72335;SDS011;65062;48.446;8.834;2022-11-15T09:51:36;5.28;;;3.78;;
72335;SDS011;65062;48.446;8.834;2022-11-15T09:54:47;4.53;;;3.35;;
72335;SDS011;65062;48.446;8.834;2022-11-15T09:57:54;6.13;;;3.42;;
72335;SDS011;65062;48.446;8.834;2022-11-15T10:01:05;5.22;;;3.83;;
72335;SDS011;65062;48.446;8.834;2022-11-15T10:04:12;5.15;;;3.20;;
72335;SDS011;65062;48.446;8.834;2022-11-15T10:10:31;4.63;;;2.75;;
72335;SDS011;65062;48.446;8.834;2022-11-15T10:13:34;5.90;;;4.05;;
72335;SDS011;65062;48.446;8.834;2022-11-15T10:22:47;5.30;;;3.72;;
72335;SDS011;65062;48.446;8.834;2022-11-15T10:25:51;3.80;;;3.08;;
72335;SDS011;65062;48.446;8.834;2022-11-15T10:28:57;21.92;;;10.63;;
72335;SDS011;65062;48.446;8.834;2022-11-15T10:31:57;10.03;;;6.83;;
72335;SDS011;65062;48.446;8.834;2022-11-15T10:34:58;9.23;;;5.60;;
72335;SDS011;65062;48.446;8.834;2022-11-15T10:38:08;5.38;;;3.60;;
72335;SDS011;65062;48.446;8.834;2022-11-15T10:41:10;5.75;;;4.43;;
72335;SDS011;65062;48.446;8.834;2022-11-15T10:47:31;7.68;;;5.80;;
72335;SDS011;65062;48.446;8.834;2022-11-15T10:50:32;5.25;;;3.53;;
72335;SDS011;65062;48.446;8.834;2022-11-15T10:53:43;4.55;;;3.55;;
72335;SDS011;65062;48.446;8.834;2022-11-15T10:56:48;4.63;;;3.83;;
72335;SDS011;65062;48.446;8.834;2022-11-15T10:59:54;5.80;;;3.95;;
72335;SDS011;65062;48.446;8.834;2022-11-15T11:03:04;6.80;;;3.80;;
72335;SDS011;65062;48.446;8.834;2022-11-15T11:06:23;6.65;;;4.05;;
72335;SDS011;65062;48.446;8.834;2022-11-15T11:12:37;6.20;;;4.25;;
72335;SDS011;65062;48.446;8.834;2022-11-15T11:15:37;6.43;;;4.28;;
72335;SDS011;65062;48.446;8.834;2022-11-15T11:21:57;6.35;;;4.38;;
72335;SDS011;65062;48.446;8.834;2022-11-15T11:25:22;6.47;;;3.90;;
72335;SDS011;65062;48.446;8.834;2022-11-15T11:51:34;15.52;;;9.45;;
72335;SDS011;65062;48.446;8.834;2022-11-15T11:58:12;5.78;;;4.22;;
72335;SDS011;65062;48.446;8.834;2022-11-15T12:01:26;5.95;;;3.90;;
72335;SDS011;65062;48.446;8.834;2022-11-15T12:04:37;5.10;;;3.65;;
72335;SDS011;65062;48.446;8.834;2022-11-15T12:07:40;7.30;;;4.82;;
72335;SDS011;65062;48.446;8.834;2022-11-15T12:10:44;5.93;;;4.80;;
72335;SDS011;65062;48.446;8.834;2022-11-15T12:13:49;7.20;;;4.20;;
72335;SDS011;65062;48.446;8.834;2022-11-15T12:16:53;7.43;;;3.83;;
72335;SDS011;65062;48.446;8.834;2022-11-15T12:20:01;7.38;;;4.93;;
72335;SDS011;65062;48.446;8.834;2022-11-15T12:23:26;6.03;;;3.83;;
72335;SDS011;65062;48.446;8.834;2022-11-15T12:26:33;5.03;;;3.65;;
72335;SDS011;65062;48.446;8.834;2022-11-15T12:29:40;4.95;;;3.47;;
72335;SDS011;65062;48.446;8.834;2022-11-15T12:32:52;4.95;;;3.55;;
72335;SDS011;65062;48.446;8.834;2022-11-15T12:35:58;5.50;;;3.72;;
72335;SDS011;65062;48.446;8.834;2022-11-15T12:39:05;9.93;;;4.55;;
72335;SDS011;65062;48.446;8.834;2022-11-15T12:54:57;7.55;;;4.65;;
72335;SDS011;65062;48.446;8.834;2022-11-15T12:58:19;7.15;;;4.93;;
72335;SDS011;65062;48.446;8.834;2022-11-15T13:04:32;7.72;;;4.93;;
72335;SDS011;65062;48.446;8.834;2022-11-15T13:10:35;6.45;;;3.47;;
72335;SDS011;65062;48.446;8.834;2022-11-15T13:13:43;7.78;;;4.05;;
72335;SDS011;65062;48.446;8.834;2022-11-15T13:16:44;7.40;;;4.22;;
72335;SDS011;65062;48.446;8.834;2022-11-15T13:22:51;27.98;;;11.68;;
72335;SDS011;65062;48.446;8.834;2022-11-15T13:26:14;12.20;;;5.70;;
72335;SDS011;65062;48.446;8.834;2022-11-15T13:29:20;9.15;;;4.10;;
72335;SDS011;65062;48.446;8.834;2022-11-15T13:32:21;8.65;;;4.50;;
72335;SDS011;65062;48.446;8.834;2022-11-15T13:35:23;8.68;;;4.47;;
72335;SDS011;65062;48.446;8.834;2022-11-15T13:38:30;7.97;;;4.20;;
72335;SDS011;65062;48.446;8.834;2022-11-15T13:41:34;7.65;;;4.50;;
72335;SDS011;65062;48.446;8.834;2022-11-15T13:44:35;8.82;;;4.50;;
72335;SDS011;65062;48.446;8.834;2022-11-15T13:47:36;7.85;;;5.15;;
72335;SDS011;65062;48.446;8.834;2022-11-15T13:50:36;7.40;;;5.05;;
72335;SDS011;65062;48.446;8.834;2022-11-15T13:53:40;8.60;;;4.80;;
72335;SDS011;65062;48.446;8.834;2022-11-15T13:56:51;11.02;;;4.80;;
72335;SDS011;65062;48.446;8.834;2022-11-15T13:59:56;10.63;;;6.00;;
72335;SDS011;65062;48.446;8.834;2022-11-15T14:03:05;11.80;;;6.50;;
72335;SDS011;65062;48.446;8.834;2022-11-15T14:09:18;7.97;;;4.97;;
72335;SDS011;65062;48.446;8.834;2022-11-15T14:12:31;9.27;;;5.25;;
72335;SDS011;65062;48.446;8.834;2022-11-15T14:15:35;6.88;;;5.05;;
72335;SDS011;65062;48.446;8.834;2022-11-15T14:25:20;13.43;;;7.00;;
72335;SDS011;65062;48.446;8.834;2022-11-15T14:31:22;20.50;;;12.83;;
72335;SDS011;65062;48.446;8.834;2022-11-15T14:34:23;15.05;;;9.75;;
72335;SDS011;65062;48.446;8.834;2022-11-15T14:37:27;15.35;;;9.57;;
72335;SDS011;65062;48.446;8.834;2022-11-15T14:40:34;15.15;;;8.85;;
72335;SDS011;65062;48.446;8.834;2022-11-15T14:43:34;10.18;;;7.65;;
72335;SDS011;65062;48.446;8.834;2022-11-15T14:46:35;11.57;;;7.45;;
72335;SDS011;65062;48.446;8.834;2022-11-15T14:49:35;12.38;;;7.57;;
72335;SDS011;65062;48.446;8.834;2022-11-15T14:52:36;9.60;;;6.75;;
72335;SDS011;65062;48.446;8.834;2022-11-15T14:55:36;11.27;;;6.72;;
72335;SDS011;65062;48.446;8.834;2022-11-15T14:58:36;9.02;;;5.70;;
72335;SDS011;65062;48.446;8.834;2022-11-15T15:01:37;9.07;;;5.53;;
72335;SDS011;65062;48.446;8.834;2022-11-15T15:04:37;8.30;;;4.97;;
72335;SDS011;65062;48.446;8.834;2022-11-15T15:07:38;11.15;;;6.45;;
72335;SDS011;65062;48.446;8.834;2022-11-15T15:10:39;12.57;;;7.20;;
72335;SDS011;65062;48.446;8.834;2022-11-15T15:13:42;12.60;;;7.68;;
72335;SDS011;65062;48.446;8.834;2022-11-15T15:16:42;9.98;;;6.90;;
72335;SDS011;65062;48.446;8.834;2022-11-15T15:19:43;10.97;;;8.03;;
72335;SDS011;65062;48.446;8.834;2022-11-15T15:22:43;11.98;;;7.32;;
72335;SDS011;65062;48.446;8.834;2022-11-15T15:25:45;11.63;;;7.78;;
72335;SDS011;65062;48.446;8.834;2022-11-15T15:28:47;13.27;;;6.82;;
72335;SDS011;65062;48.446;8.834;2022-11-15T15:31:51;13.90;;;8.85;;
72335;SDS011;65062;48.446;8.834;2022-11-15T15:34:52;14.35;;;8.63;;
72335;SDS011;65062;48.446;8.834;2022-11-15T15:37:52;14.27;;;8.75;;
72335;SDS011;65062;48.446;8.834;2022-11-15T15:40:53;12.45;;;8.50;;
72335;SDS011;65062;48.446;8.834;2022-11-15T15:43:53;12.95;;;7.70;;
72335;SDS011;65062;48.446;8.834;2022-11-15T15:46:53;14.18;;;8.20;;
72335;SDS011;65062;48.446;8.834;2022-11-15T15:49:54;16.65;;;10.00;;
72335;SDS011;65062;48.446;8.834;2022-11-15T15:52:55;19.60;;;11.45;;
72335;SDS011;65062;48.446;8.834;2022-11-15T15:55:57;16.52;;;11.40;;
72335;SDS011;65062;48.446;8.834;2022-11-15T15:58:58;19.75;;;11.13;;
72335;SDS011;65062;48.446;8.834;2022-11-15T16:01:58;16.35;;;11.40;;
72335;SDS011;65062;48.446;8.834;2022-11-15T16:04:58;17.60;;;11.63;;
72335;SDS011;65062;48.446;8.834;2022-11-15T16:07:59;15.73;;;11.20;;
72335;SDS011;65062;48.446;8.834;2022-11-15T16:10:59;16.80;;;10.60;;
72335;SDS011;65062;48.446;8.834;2022-11-15T16:14:00;18.67;;;10.45;;
72335;SDS011;65062;48.446;8.834;2022-11-15T16:17:00;18.40;;;12.15;;
72335;SDS011;65062;48.446;8.834;2022-11-15T16:20:01;17.10;;;12.23;;
72335;SDS011;65062;48.446;8.834;2022-11-15T16:23:06;25.35;;;14.02;;
72335;SDS011;65062;48.446;8.834;2022-11-15T16:26:14;20.20;;;11.65;;
72335;SDS011;65062;48.446;8.834;2022-11-15T16:29:20;22.20;;;13.52;;
72335;SDS011;65062;48.446;8.834;2022-11-15T16:32:20;28.87;;;15.87;;
72335;SDS011;65062;48.446;8.834;2022-11-15T16:35:21;25.15;;;16.52;;
72335;SDS011;65062;48.446;8.834;2022-11-15T16:38:21;26.92;;;16.58;;
72335;SDS011;65062;48.446;8.834;2022-11-15T16:41:21;26.05;;;17.50;;
72335;SDS011;65062;48.446;8.834;2022-11-15T16:44:22;28.50;;;17.90;;
72335;SDS011;65062;48.446;8.834;2022-11-15T16:47:23;21.85;;;15.50;;
72335;SDS011;65062;48.446;8.834;2022-11-15T16:50:25;35.28;;;21.50;;
72335;SDS011;65062;48.446;8.834;2022-11-15T16:53:27;19.83;;;12.85;;
72335;SDS011;65062;48.446;8.834;2022-11-15T16:56:29;21.38;;;14.57;;
72335;SDS011;65062;48.446;8.834;2022-11-15T16:59:29;27.60;;;17.20;;
72335;SDS011;65062;48.446;8.834;2022-11-15T17:02:32;26.73;;;16.90;;
72335;SDS011;65062;48.446;8.834;2022-11-15T17:05:32;32.08;;;19.77;;
72335;SDS011;65062;48.446;8.834;2022-11-15T17:08:33;27.67;;;19.15;;
72335;SDS011;65062;48.446;8.834;2022-11-15T17:11:33;29.83;;;20.33;;
72335;SDS011;65062;48.446;8.834;2022-11-15T17:14:34;45.20;;;26.02;;
72335;SDS011;65062;48.446;8.834;2022-11-15T17:17:34;56.97;;;28.30;;
72335;SDS011;65062;48.446;8.834;2022-11-15T17:20:35;51.42;;;29.55;;
72335;SDS011;65062;48.446;8.834;2022-11-15T17:23:35;47.20;;;28.42;;
72335;SDS011;65062;48.446;8.834;2022-11-15T17:26:35;36.15;;;21.77;;
72335;SDS011;65062;48.446;8.834;2022-11-15T17:29:37;34.13;;;22.05;;
72335;SDS011;65062;48.446;8.834;2022-11-15T17:32:37;38.20;;;23.50;;
72335;SDS011;65062;48.446;8.834;2022-11-15T17:35:38;41.13;;;24.25;;
72335;SDS011;65062;48.446;8.834;2022-11-15T17:38:41;38.95;;;23.27;;
72335;SDS011;65062;48.446;8.834;2022-11-15T17:41:42;36.15;;;20.98;;
72335;SDS011;65062;48.446;8.834;2022-11-15T17:44:42;31.17;;;19.88;;
72335;SDS011;65062;48.446;8.834;2022-11-15T17:47:43;37.30;;;22.73;;
72335;SDS011;65062;48.446;8.834;2022-11-15T17:50:43;39.30;;;23.30;;
72335;SDS011;65062;48.446;8.834;2022-11-15T17:53:45;34.13;;;19.85;;
72335;SDS011;65062;48.446;8.834;2022-11-15T17:56:48;30.73;;;19.05;;
72335;SDS011;65062;48.446;8.834;2022-11-15T17:59:48;32.03;;;19.75;;
72335;SDS011;65062;48.446;8.834;2022-11-15T18:02:48;24.55;;;16.90;;
72335;SDS011;65062;48.446;8.834;2022-11-15T18:05:49;28.30;;;17.90;;
72335;SDS011;65062;48.446;8.834;2022-11-15T18:08:50;29.30;;;17.38;;
72335;SDS011;65062;48.446;8.834;2022-11-15T18:11:51;30.27;;;18.02;;
72335;SDS011;65062;48.446;8.834;2022-11-15T18:14:53;29.27;;;18.52;;
72335;SDS011;65062;48.446;8.834;2022-11-15T18:17:53;27.80;;;18.80;;
72335;SDS011;65062;48.446;8.834;2022-11-15T18:21:08;41.38;;;25.67;;
72335;SDS011;65062;48.446;8.834;2022-11-15T18:24:10;42.17;;;25.65;;
72335;SDS011;65062;48.446;8.834;2022-11-15T18:27:11;33.72;;;21.88;;
72335;SDS011;65062;48.446;8.834;2022-11-15T18:30:11;32.30;;;20.77;;
72335;SDS011;65062;48.446;8.834;2022-11-15T18:33:12;28.83;;;18.25;;
72335;SDS011;65062;48.446;8.834;2022-11-15T18:36:16;42.92;;;27.48;;
72335;SDS011;65062;48.446;8.834;2022-11-15T18:39:20;40.25;;;26.38;;
72335;SDS011;65062;48.446;8.834;2022-11-15T18:42:21;48.97;;;33.28;;
72335;SDS011;65062;48.446;8.834;2022-11-15T18:45:21;44.05;;;29.13;;
72335;SDS011;65062;48.446;8.834;2022-11-15T18:48:22;39.75;;;26.60;;
72335;SDS011;65062;48.446;8.834;2022-11-15T18:51:23;38.67;;;25.90;;
72335;SDS011;65062;48.446;8.834;2022-11-15T18:54:25;38.63;;;25.27;;
72335;SDS011;65062;48.446;8.834;2022-11-15T18:57:25;33.30;;;23.52;;
72335;SDS011;65062;48.446;8.834;2022-11-15T19:00:26;36.75;;;23.13;;
72335;SDS011;65062;48.446;8.834;2022-11-15T19:03:29;32.13;;;21.92;;
72335;SDS011;65062;48.446;8.834;2022-11-15T19:06:31;24.77;;;16.40;;
72335;SDS011;65062;48.446;8.834;2022-11-15T19:09:35;20.33;;;13.13;;
72335;SDS011;65062;48.446;8.834;2022-11-15T19:12:36;30.13;;;17.58;;
72335;SDS011;65062;48.446;8.834;2022-11-15T19:15:36;26.70;;;17.25;;
72335;SDS011;65062;48.446;8.834;2022-11-15T19:18:36;16.73;;;11.05;;
72335;SDS011;65062;48.446;8.834;2022-11-15T19:21:38;15.93;;;10.68;;
72335;SDS011;65062;48.446;8.834;2022-11-15T19:24:38;14.90;;;10.32;;
72335;SDS011;65062;48.446;8.834;2022-11-15T19:27:38;21.02;;;11.77;;
72335;SDS011;65062;48.446;8.834;2022-11-15T19:30:39;13.50;;;9.85;;
72335;SDS011;65062;48.446;8.834;2022-11-15T19:33:40;15.10;;;10.23;;
72335;SDS011;65062;48.446;8.834;2022-11-15T19:36:42;14.57;;;10.63;;
72335;SDS011;65062;48.446;8.834;2022-11-15T19:39:43;13.80;;;9.68;;
72335;SDS011;65062;48.446;8.834;2022-11-15T19:42:44;18.35;;;11.65;;
72335;SDS011;65062;48.446;8.834;2022-11-15T19:45:50;16.42;;;11.65;;
72335;SDS011;65062;48.446;8.834;2022-11-15T19:48:54;17.85;;;11.57;;
72335;SDS011;65062;48.446;8.834;2022-11-15T19:51:54;20.10;;;15.13;;
72335;SDS011;65062;48.446;8.834;2022-11-15T19:54:55;24.88;;;17.58;;
72335;SDS011;65062;48.446;8.834;2022-11-15T19:57:55;25.08;;;17.17;;
72335;SDS011;65062;48.446;8.834;2022-11-15T20:04:38;24.65;;;16.70;;
72335;SDS011;65062;48.446;8.834;2022-11-15T20:07:38;22.05;;;15.18;;
72335;SDS011;65062;48.446;8.834;2022-11-15T20:10:38;22.70;;;15.43;;
72335;SDS011;65062;48.446;8.834;2022-11-15T20:13:39;19.90;;;14.73;;
72335;SDS011;65062;48.446;8.834;2022-11-15T20:19:42;22.92;;;14.75;;
72335;SDS011;65062;48.446;8.834;2022-11-15T20:22:42;26.30;;;18.63;;